NORTHEAST SUFFOLK  -  Freeze Watch Freeze Watch        NORTHWEST SUFFOLK  -  Freeze Watch Freeze Watch        SOUTHEAST SUFFOLK  -  Freeze Watch Freeze Watch        SOUTHWEST SUFFOLK  -  Freeze Watch Freeze Watch      

Active alerts

Northwest Suffolk
  Details for Northwest Suffolk Freeze Watch
Southwest Suffolk
  Details for Southwest Suffolk Freeze Watch
Northeast Suffolk
  Details for Northeast Suffolk Freeze Watch
Southeast Suffolk
  Details for Southeast Suffolk Freeze Watch


WXM80 ListenWXM80 Stop

You find our weather info also at:

UK Metoffice

WeatherCloud

Weather Underground

Northeastern Weather Network

AWEKAS

Citizen Weather Observer Program (CWOP)

HAMweather, WeatherForYou, PWS Weather


Weather Underground History page Text

Daily Summary for June 2, 2016 Units:  English    Metric   Both
« Previous Day
Next Day »
Daily Weekly Monthly Yearly Custom
  High: Low: Average:
Temperature: 71.3 °F 60.1 °F 65 °F
Dew Point: 63.2 °F 57.7 °F 60.3 °F
Humidity: 94 % 73 % 85 %
Wind Speed: 7.0 mph 0.0 mph 1.9 mph
Wind Gust: 11.0 mph - -
Wind:- - East
Pressure: 30.15 in 30.05 in -
Precipitation: 0.00 in    
Historical Graphs
 
 
Tabular Data for June 2, 2016
Time Temperature Dew Point Pressure Wind Wind Speed Wind Gust Humidity Rainfall Rate (Hourly)
00:03 62.9 °F 58.0 °F 30.13 in ENE 0.5 mph 2.3 mph 84 % 0.00 in
00:08 62.7 °F 57.8 °F 30.13 in ENE 0.9 mph 2.3 mph 84 % 0.00 in
00:13 62.6 °F 57.7 °F 30.13 in ENE 0.2 mph 1.2 mph 84 % 0.00 in
00:18 62.6 °F 57.7 °F 30.14 in ENE 1.0 mph 2.3 mph 84 % 0.00 in
00:23 62.6 °F 58.4 °F 30.13 in ENE 2.6 mph 3.5 mph 86 % 0.00 in
00:28 62.6 °F 58.7 °F 30.13 in ENE 1.9 mph 3.5 mph 87 % 0.00 in
00:33 62.6 °F 59.0 °F 30.13 in ENE 1.3 mph 3.5 mph 88 % 0.00 in
00:39 62.6 °F 59.0 °F 30.14 in ENE 1.7 mph 3.5 mph 88 % 0.00 in
00:44 62.5 °F 58.9 °F 30.14 in NE 1.7 mph 3.5 mph 88 % 0.00 in
00:49 62.5 °F 59.2 °F 30.14 in ENE 1.8 mph 3.5 mph 89 % 0.00 in
00:54 62.5 °F 59.5 °F 30.14 in ENE 1.2 mph 2.3 mph 90 % 0.00 in
00:59 62.4 °F 59.4 °F 30.13 in ENE 1.0 mph 2.3 mph 90 % 0.00 in
01:04 62.4 °F 59.4 °F 30.13 in ENE 0.2 mph 1.2 mph 90 % 0.00 in
01:09 62.3 °F 59.3 °F 30.14 in ENE 0.4 mph 1.2 mph 90 % 0.00 in
01:14 62.2 °F 59.5 °F 30.13 in ENE 0.4 mph 1.2 mph 91 % 0.00 in
01:19 62.1 °F 59.4 °F 30.13 in ENE 0.5 mph 1.2 mph 91 % 0.00 in
01:24 62.0 °F 59.3 °F 30.13 in ENE 0.4 mph 1.2 mph 91 % 0.00 in
01:30 62.0 °F 59.3 °F 30.13 in ENE 0.1 mph 1.2 mph 91 % 0.00 in
01:35 61.9 °F 59.2 °F 30.13 in ENE 1.0 mph 3.5 mph 91 % 0.00 in
01:40 61.7 °F 59.0 °F 30.13 in ENE 1.2 mph 2.3 mph 91 % 0.00 in
01:45 61.6 °F 58.9 °F 30.13 in ENE 0.2 mph 1.2 mph 91 % 0.00 in
01:50 61.6 °F 58.9 °F 30.13 in ENE 0.4 mph 2.3 mph 91 % 0.00 in
01:55 61.6 °F 59.3 °F 30.13 in ENE 0.2 mph 1.2 mph 92 % 0.00 in
02:00 61.5 °F 59.2 °F 30.13 in ENE 0.2 mph 1.2 mph 92 % 0.00 in
02:05 61.4 °F 59.1 °F 30.13 in ENE 0.1 mph 1.2 mph 92 % 0.00 in
02:10 61.4 °F 59.1 °F 30.13 in ENE 0.8 mph 2.3 mph 92 % 0.00 in
02:16 61.3 °F 59.0 °F 30.13 in ENE 0.6 mph 2.3 mph 92 % 0.00 in
02:21 61.2 °F 58.9 °F 30.12 in ENE 0.4 mph 2.3 mph 92 % 0.00 in
02:26 61.2 °F 58.9 °F 30.12 in ENE 0.6 mph 1.2 mph 92 % 0.00 in
02:31 61.2 °F 58.9 °F 30.12 in ENE 0.4 mph 1.2 mph 92 % 0.00 in
02:36 61.1 °F 58.8 °F 30.12 in ENE 0.7 mph 1.2 mph 92 % 0.00 in
02:41 61.0 °F 58.7 °F 30.12 in ENE 0.3 mph 1.2 mph 92 % 0.00 in
02:46 60.9 °F 58.6 °F 30.12 in ENE 0.4 mph 1.2 mph 92 % 0.00 in
02:51 60.9 °F 58.6 °F 30.12 in ENE 0.5 mph 1.2 mph 92 % 0.00 in
02:56 60.8 °F 58.5 °F 30.12 in ENE 0.6 mph 1.2 mph 92 % 0.00 in
03:07 60.8 °F 58.8 °F 30.12 in ENE 0.5 mph 1.2 mph 93 % 0.00 in
03:12 60.7 °F 58.7 °F 30.12 in ENE 0.6 mph 1.2 mph 93 % 0.00 in
03:17 60.7 °F 58.7 °F 30.12 in ENE 0.5 mph 1.2 mph 93 % 0.00 in
03:22 60.7 °F 58.7 °F 30.12 in ENE 1.3 mph 3.5 mph 93 % 0.00 in
03:27 60.7 °F 58.7 °F 30.12 in East 1.1 mph 2.3 mph 93 % 0.00 in
03:32 60.7 °F 58.7 °F 30.12 in East 0.9 mph 2.3 mph 93 % 0.00 in
03:42 60.6 °F 58.6 °F 30.11 in East 1.8 mph 3.5 mph 93 % 0.00 in
03:52 60.5 °F 58.5 °F 30.11 in East 2.0 mph 3.0 mph 93 % 0.00 in
03:58 60.5 °F 58.5 °F 30.11 in East 1.7 mph 3.0 mph 93 % 0.00 in
04:03 60.5 °F 58.5 °F 30.11 in East 1.6 mph 3.5 mph 93 % 0.00 in
04:08 60.4 °F 58.4 °F 30.11 in ESE 1.4 mph 3.5 mph 93 % 0.00 in
04:13 60.4 °F 58.4 °F 30.11 in ESE 1.2 mph 2.3 mph 93 % 0.00 in
04:18 60.3 °F 58.3 °F 30.11 in ESE 1.2 mph 2.3 mph 93 % 0.00 in
04:23 60.3 °F 58.3 °F 30.12 in ESE 1.1 mph 2.3 mph 93 % 0.00 in
04:28 60.3 °F 58.3 °F 30.11 in ESE 1.4 mph 3.5 mph 93 % 0.00 in
04:33 60.3 °F 58.3 °F 30.12 in ESE 1.5 mph 3.0 mph 93 % 0.00 in
04:38 60.3 °F 58.3 °F 30.12 in East 1.4 mph 2.3 mph 93 % 0.00 in
04:43 60.2 °F 58.2 °F 30.11 in East 1.2 mph 2.3 mph 93 % 0.00 in
04:49 60.2 °F 58.2 °F 30.12 in East 1.2 mph 2.3 mph 93 % 0.00 in
04:59 60.1 °F 58.1 °F 30.11 in East 1.8 mph 3.5 mph 93 % 0.00 in
05:04 60.1 °F 58.4 °F 30.11 in East 1.9 mph 3.5 mph 94 % 0.00 in
05:09 60.1 °F 58.4 °F 30.11 in East 1.7 mph 2.3 mph 94 % 0.00 in
05:19 60.2 °F 58.5 °F 30.11 in East 1.5 mph 2.3 mph 94 % 0.00 in
05:29 60.1 °F 58.4 °F 30.11 in East 1.9 mph 3.5 mph 94 % 0.00 in
05:34 60.1 °F 58.4 °F 30.11 in East 1.5 mph 3.5 mph 94 % 0.00 in
05:40 60.1 °F 58.4 °F 30.11 in East 1.9 mph 3.5 mph 94 % 0.00 in
05:45 60.1 °F 58.4 °F 30.12 in East 1.6 mph 2.3 mph 94 % 0.00 in
05:50 60.1 °F 58.4 °F 30.12 in East 2.1 mph 3.5 mph 94 % 0.00 in
05:55 60.1 °F 58.4 °F 30.12 in East 1.9 mph 3.5 mph 94 % 0.00 in
06:00 60.2 °F 58.5 °F 30.12 in East 1.7 mph 2.3 mph 94 % 0.00 in
06:05 60.3 °F 58.6 °F 30.12 in East 1.3 mph 2.3 mph 94 % 0.00 in
06:10 60.4 °F 58.7 °F 30.12 in East 1.6 mph 2.3 mph 94 % 0.00 in
06:15 60.6 °F 58.9 °F 30.12 in East 1.2 mph 2.3 mph 94 % 0.00 in
06:20 60.7 °F 59.0 °F 30.12 in East 0.9 mph 2.3 mph 94 % 0.00 in
06:25 61.0 °F 59.3 °F 30.12 in East 1.5 mph 2.3 mph 94 % 0.00 in
06:31 61.3 °F 59.6 °F 30.12 in East 1.0 mph 2.3 mph 94 % 0.00 in
06:36 61.6 °F 59.9 °F 30.12 in East 1.3 mph 3.5 mph 94 % 0.00 in
06:41 62.0 °F 60.0 °F 30.12 in East 0.9 mph 2.3 mph 93 % 0.00 in
06:46 62.3 °F 60.2 °F 30.13 in East 1.2 mph 2.3 mph 93 % 0.00 in
06:51 62.6 °F 60.2 °F 30.13 in East 1.3 mph 2.3 mph 92 % 0.00 in
06:56 62.9 °F 60.5 °F 30.13 in East 1.5 mph 3.5 mph 92 % 0.00 in
07:01 63.3 °F 60.6 °F 30.13 in East 1.0 mph 2.3 mph 91 % 0.00 in
07:06 63.7 °F 60.7 °F 30.13 in East 1.2 mph 2.3 mph 90 % 0.00 in
07:11 64.0 °F 60.7 °F 30.13 in East 1.3 mph 2.3 mph 89 % 0.00 in
07:16 64.1 °F 60.5 °F 30.13 in East 1.2 mph 2.3 mph 88 % 0.00 in
07:22 64.2 °F 60.2 °F 30.13 in East 1.3 mph 2.3 mph 87 % 0.00 in
07:27 63.9 °F 59.6 °F 30.13 in ENE 2.7 mph 3.5 mph 86 % 0.00 in
07:32 63.7 °F 59.8 °F 30.13 in ENE 2.3 mph 3.5 mph 87 % 0.00 in
07:37 63.5 °F 59.9 °F 30.13 in ENE 1.7 mph 3.5 mph 88 % 0.00 in
07:47 63.7 °F 60.1 °F 30.14 in ENE 3.7 mph 4.6 mph 88 % 0.00 in
07:52 63.6 °F 59.7 °F 30.13 in ENE 2.2 mph 8.1 mph 87 % 0.00 in
07:57 63.7 °F 60.1 °F 30.14 in ENE 2.9 mph 4.6 mph 88 % 0.00 in
08:02 63.7 °F 59.8 °F 30.13 in ENE 4.4 mph 7.0 mph 87 % 0.00 in
08:07 63.8 °F 60.2 °F 30.13 in ENE 3.7 mph 8.1 mph 88 % 0.00 in
08:13 63.9 °F 60.0 °F 30.13 in NE 1.6 mph 4.6 mph 87 % 0.00 in
08:18 64.1 °F 60.2 °F 30.13 in East 3.8 mph 8.1 mph 87 % 0.00 in
08:23 64.2 °F 60.2 °F 30.14 in NE 1.8 mph 3.5 mph 87 % 0.00 in
08:28 64.3 °F 60.0 °F 30.14 in East 3.9 mph 6.9 mph 86 % 0.00 in
08:33 64.4 °F 60.4 °F 30.14 in ENE 2.1 mph 3.5 mph 87 % 0.00 in
08:38 64.7 °F 60.4 °F 30.14 in ENE 4.1 mph 8.1 mph 86 % 0.00 in
08:43 64.7 °F 60.4 °F 30.14 in ENE 5.0 mph 9.0 mph 86 % 0.00 in
08:48 64.5 °F 59.9 °F 30.14 in ENE 5.0 mph 9.2 mph 85 % 0.00 in
08:53 64.7 °F 60.4 °F 30.13 in East 2.5 mph 5.0 mph 86 % 0.00 in
08:58 65.0 °F 60.7 °F 30.14 in ENE 2.7 mph 3.5 mph 86 % 0.00 in
09:04 65.0 °F 60.4 °F 30.13 in ENE 1.5 mph 3.5 mph 85 % 0.00 in
09:09 64.8 °F 59.9 °F 30.14 in ENE 4.0 mph 5.8 mph 84 % 0.00 in
09:14 64.5 °F 59.9 °F 30.14 in ENE 2.1 mph 3.5 mph 85 % 0.00 in
09:19 64.7 °F 60.1 °F 30.13 in ENE 3.5 mph 5.8 mph 85 % 0.00 in
09:24 64.8 °F 60.2 °F 30.14 in East 4.5 mph 6.9 mph 85 % 0.00 in
09:29 64.8 °F 59.9 °F 30.14 in NE 3.2 mph 9.0 mph 84 % 0.00 in
09:34 64.8 °F 60.2 °F 30.14 in ENE 2.4 mph 3.5 mph 85 % 0.00 in
09:39 64.8 °F 59.5 °F 30.14 in ENE 3.3 mph 7.0 mph 83 % 0.00 in
09:44 64.6 °F 59.7 °F 30.14 in ENE 4.1 mph 5.8 mph 84 % 0.00 in
09:49 64.6 °F 59.7 °F 30.14 in ENE 4.3 mph 6.9 mph 84 % 0.00 in
09:55 64.5 °F 59.6 °F 30.14 in ENE 4.4 mph 8.1 mph 84 % 0.00 in
10:00 64.6 °F 60.0 °F 30.14 in ENE 2.5 mph 6.9 mph 85 % 0.00 in
10:05 65.1 °F 60.1 °F 30.14 in ENE 3.9 mph 8.1 mph 84 % 0.00 in
10:10 65.4 °F 60.1 °F 30.14 in ENE 3.3 mph 6.9 mph 83 % 0.00 in
10:15 65.9 °F 60.6 °F 30.14 in ENE 2.9 mph 5.8 mph 83 % 0.00 in
10:20 66.5 °F 61.2 °F 30.14 in ENE 2.2 mph 3.5 mph 83 % 0.00 in
10:25 66.5 °F 60.8 °F 30.14 in ENE 2.1 mph 3.5 mph 82 % 0.00 in
10:30 66.7 °F 60.7 °F 30.14 in ENE 4.5 mph 9.2 mph 81 % 0.00 in
10:35 66.7 °F 61.0 °F 30.14 in ENE 2.6 mph 4.0 mph 82 % 0.00 in
10:40 67.4 °F 61.4 °F 30.14 in ENE 2.2 mph 6.9 mph 81 % 0.00 in
10:46 68.1 °F 62.0 °F 30.15 in East 3.6 mph 5.0 mph 81 % 0.00 in
10:51 68.8 °F 62.4 °F 30.14 in NE 3.6 mph 8.0 mph 80 % 0.00 in
10:56 69.3 °F 62.1 °F 30.14 in ENE 2.4 mph 6.9 mph 78 % 0.00 in
11:01 69.3 °F 61.8 °F 30.14 in ENE 3.8 mph 9.0 mph 77 % 0.00 in
11:11 68.6 °F 61.8 °F 30.14 in ENE 5.0 mph 8.1 mph 79 % 0.00 in
11:16 68.7 °F 61.9 °F 30.14 in NE 4.4 mph 6.0 mph 79 % 0.00 in
11:21 68.3 °F 61.2 °F 30.14 in ENE 4.1 mph 9.2 mph 78 % 0.00 in
11:26 68.2 °F 61.1 °F 30.14 in ENE 4.8 mph 9.2 mph 78 % 0.00 in
11:31 68.3 °F 62.2 °F 30.14 in ENE 1.9 mph 4.6 mph 81 % 0.00 in
11:37 69.2 °F 62.8 °F 30.14 in East 2.3 mph 5.8 mph 80 % 0.00 in
11:42 69.9 °F 62.4 °F 30.14 in ENE 2.8 mph 5.0 mph 77 % 0.00 in
11:47 70.4 °F 62.1 °F 30.14 in NE 5.5 mph 9.0 mph 75 % 0.00 in
11:52 69.7 °F 61.8 °F 30.14 in East 2.2 mph 7.0 mph 76 % 0.00 in
11:57 69.7 °F 61.4 °F 30.14 in ENE 5.2 mph 10.4 mph 75 % 0.00 in
12:02 69.3 °F 61.8 °F 30.13 in ENE 2.8 mph 8.1 mph 77 % 0.00 in
12:07 69.7 °F 62.9 °F 30.13 in ENE 2.4 mph 5.8 mph 79 % 0.00 in
12:12 70.3 °F 62.7 °F 30.13 in ENE 2.2 mph 10.4 mph 77 % 0.00 in
12:22 70.8 °F 62.1 °F 30.13 in East 5.0 mph 10.0 mph 74 % 0.00 in
12:28 70.5 °F 62.2 °F 30.13 in ENE 4.7 mph 9.2 mph 75 % 0.00 in
12:33 70.7 °F 63.1 °F 30.13 in ENE 1.8 mph 3.5 mph 77 % 0.00 in
12:38 71.1 °F 62.4 °F 30.12 in ENE 4.1 mph 11.0 mph 74 % 0.00 in
12:43 70.3 °F 61.6 °F 30.12 in ENE 7.0 mph 10.4 mph 74 % 0.00 in
12:48 69.8 °F 61.5 °F 30.13 in ENE 4.0 mph 8.1 mph 75 % 0.00 in
12:53 69.8 °F 62.3 °F 30.12 in NE 4.6 mph 8.1 mph 77 % 0.00 in
12:58 69.7 °F 61.8 °F 30.12 in ENE 5.2 mph 6.9 mph 76 % 0.00 in
13:03 70.0 °F 62.5 °F 30.12 in NE 4.0 mph 8.1 mph 77 % 0.00 in
13:08 70.6 °F 62.7 °F 30.12 in ENE 2.0 mph 5.8 mph 76 % 0.00 in
13:13 71.2 °F 63.2 °F 30.12 in East 2.1 mph 3.5 mph 76 % 0.00 in
13:19 71.3 °F 62.2 °F 30.12 in ENE 5.7 mph 10.4 mph 73 % 0.00 in
13:24 70.7 °F 62.0 °F 30.12 in ENE 4.9 mph 8.1 mph 74 % 0.00 in
13:29 70.0 °F 61.7 °F 30.12 in ENE 3.1 mph 5.8 mph 75 % 0.00 in
13:34 69.7 °F 61.8 °F 30.12 in NE 3.2 mph 9.2 mph 76 % 0.00 in
13:39 69.5 °F 61.6 °F 30.12 in ENE 2.4 mph 4.6 mph 76 % 0.00 in
13:44 69.5 °F 61.6 °F 30.12 in ENE 4.7 mph 7.0 mph 76 % 0.00 in
13:49 69.1 °F 61.6 °F 30.11 in East 4.2 mph 8.0 mph 77 % 0.00 in
13:54 68.9 °F 62.1 °F 30.12 in ENE 3.0 mph 5.8 mph 79 % 0.00 in
13:59 69.2 °F 62.4 °F 30.11 in ENE 4.1 mph 8.0 mph 79 % 0.00 in
14:04 69.5 °F 62.3 °F 30.11 in ENE 3.2 mph 9.2 mph 78 % 0.00 in
14:10 69.7 °F 61.8 °F 30.11 in ENE 3.4 mph 3.5 mph 76 % 0.00 in
14:15 69.9 °F 62.4 °F 30.11 in East 2.5 mph 8.1 mph 77 % 0.00 in
14:20 70.3 °F 62.4 °F 30.11 in East 3.8 mph 6.9 mph 76 % 0.00 in
14:25 70.5 °F 62.2 °F 30.10 in ENE 2.6 mph 5.8 mph 75 % 0.00 in
14:30 70.4 °F 62.1 °F 30.10 in ENE 2.4 mph 3.5 mph 75 % 0.00 in
14:35 70.6 °F 63.0 °F 30.11 in ENE 1.6 mph 3.5 mph 77 % 0.00 in
14:40 71.0 °F 63.1 °F 30.10 in ENE 1.7 mph 4.6 mph 76 % 0.00 in
14:45 71.1 °F 62.8 °F 30.10 in ENE 1.5 mph 4.6 mph 75 % 0.00 in
14:50 71.1 °F 62.8 °F 30.10 in East 1.7 mph 4.6 mph 75 % 0.00 in
14:56 70.7 °F 62.4 °F 30.10 in ENE 2.0 mph 3.5 mph 75 % 0.00 in
15:01 70.5 °F 61.8 °F 30.10 in ENE 5.7 mph 10.4 mph 74 % 0.00 in
15:06 70.2 °F 61.9 °F 30.10 in ENE 2.6 mph 3.5 mph 75 % 0.00 in
15:11 70.1 °F 61.4 °F 30.10 in ENE 2.1 mph 3.5 mph 74 % 0.00 in
15:16 70.1 °F 62.2 °F 30.09 in NE 1.9 mph 3.5 mph 76 % 0.00 in
15:21 70.0 °F 61.7 °F 30.10 in East 4.4 mph 8.1 mph 75 % 0.00 in
15:26 69.6 °F 61.3 °F 30.09 in East 2.4 mph 6.9 mph 75 % 0.00 in
15:31 69.5 °F 62.0 °F 30.09 in ENE 2.5 mph 5.0 mph 77 % 0.00 in
15:36 69.4 °F 61.9 °F 30.09 in ENE 1.9 mph 3.0 mph 77 % 0.00 in
15:41 69.2 °F 61.3 °F 30.09 in NE 1.6 mph 10.4 mph 76 % 0.00 in
15:47 69.3 °F 62.1 °F 30.08 in ENE 1.6 mph 3.5 mph 78 % 0.00 in
15:57 69.8 °F 61.9 °F 30.08 in ENE 2.4 mph 4.6 mph 76 % 0.00 in
16:02 69.6 °F 61.3 °F 30.08 in NE 5.6 mph 9.2 mph 75 % 0.00 in
16:07 69.0 °F 61.1 °F 30.08 in ENE 1.9 mph 3.5 mph 76 % 0.00 in
16:12 69.1 °F 61.9 °F 30.08 in ENE 2.0 mph 3.5 mph 78 % 0.00 in
16:17 69.3 °F 62.1 °F 30.08 in ENE 2.1 mph 3.5 mph 78 % 0.00 in
16:22 69.2 °F 61.3 °F 30.08 in ENE 2.8 mph 4.6 mph 76 % 0.00 in
16:32 69.1 °F 61.9 °F 30.08 in ESE 1.5 mph 3.5 mph 78 % 0.00 in
16:38 69.3 °F 62.1 °F 30.07 in ENE 1.6 mph 3.0 mph 78 % 0.00 in
16:43 69.4 °F 61.9 °F 30.07 in East 2.7 mph 5.8 mph 77 % 0.00 in
16:48 69.3 °F 62.1 °F 30.07 in East 1.6 mph 3.0 mph 78 % 0.00 in
16:53 69.1 °F 61.6 °F 30.07 in East 2.0 mph 4.6 mph 77 % 0.00 in
16:58 68.9 °F 61.8 °F 30.07 in ESE 1.8 mph 3.5 mph 78 % 0.00 in
17:03 68.6 °F 61.1 °F 30.07 in East 2.0 mph 3.5 mph 77 % 0.00 in
17:08 68.3 °F 61.5 °F 30.07 in East 1.8 mph 4.6 mph 79 % 0.00 in
17:13 68.1 °F 61.3 °F 30.07 in ENE 2.2 mph 3.5 mph 79 % 0.00 in
17:23 67.3 °F 60.9 °F 30.06 in ENE 1.5 mph 3.5 mph 80 % 0.00 in
17:29 67.1 °F 61.4 °F 30.06 in ENE 1.7 mph 3.5 mph 82 % 0.00 in
17:34 67.2 °F 61.5 °F 30.06 in ENE 1.5 mph 3.5 mph 82 % 0.00 in
17:39 66.9 °F 60.9 °F 30.06 in NE 1.7 mph 3.5 mph 81 % 0.00 in
17:44 66.8 °F 61.1 °F 30.06 in ENE 2.1 mph 3.5 mph 82 % 0.00 in
17:49 66.6 °F 60.6 °F 30.06 in NE 1.8 mph 4.6 mph 81 % 0.00 in
17:54 66.4 °F 60.7 °F 30.06 in ENE 2.4 mph 5.0 mph 82 % 0.00 in
17:59 66.3 °F 61.0 °F 30.06 in ENE 1.6 mph 3.5 mph 83 % 0.00 in
18:04 66.3 °F 61.0 °F 30.06 in ENE 0.8 mph 2.3 mph 83 % 0.00 in
18:09 66.2 °F 60.5 °F 30.06 in ENE 1.6 mph 2.3 mph 82 % 0.00 in
18:20 66.2 °F 60.9 °F 30.06 in NE 2.1 mph 3.5 mph 83 % 0.00 in
18:25 66.2 °F 60.9 °F 30.06 in NE 1.1 mph 2.3 mph 83 % 0.00 in
18:30 66.1 °F 60.8 °F 30.06 in NE 1.1 mph 3.5 mph 83 % 0.00 in
18:35 65.9 °F 60.9 °F 30.06 in ESE 1.2 mph 3.5 mph 84 % 0.00 in
18:40 65.9 °F 60.9 °F 30.06 in ESE 0.7 mph 2.3 mph 84 % 0.00 in
18:45 65.8 °F 60.8 °F 30.06 in ESE 0.7 mph 2.3 mph 84 % 0.00 in
18:50 65.9 °F 61.3 °F 30.06 in ESE 0.7 mph 2.0 mph 85 % 0.00 in
18:55 65.9 °F 60.9 °F 30.06 in ESE 0.8 mph 2.3 mph 84 % 0.00 in
19:00 65.9 °F 60.9 °F 30.06 in ESE 0.5 mph 1.2 mph 84 % 0.00 in
19:05 65.9 °F 61.3 °F 30.06 in Calm     85 % 0.00 in
19:11 65.8 °F 61.2 °F 30.06 in Calm     85 % 0.00 in
19:16 65.7 °F 61.1 °F 30.06 in Calm     85 % 0.00 in
19:21 65.7 °F 61.1 °F 30.06 in Calm   1.2 mph 85 % 0.00 in
19:26 65.5 °F 61.2 °F 30.05 in Calm     86 % 0.00 in
19:31 65.4 °F 61.1 °F 30.06 in Calm     86 % 0.00 in
19:36 65.3 °F 61.0 °F 30.05 in ESE 0.1 mph 1.2 mph 86 % 0.00 in
19:41 65.3 °F 61.3 °F 30.05 in SE 1.5 mph 3.5 mph 87 % 0.00 in
19:46 65.2 °F 61.2 °F 30.05 in SE 2.8 mph 6.9 mph 87 % 0.00 in
19:51 65.2 °F 61.2 °F 30.05 in ESE 3.2 mph 4.6 mph 87 % 0.00 in
19:56 65.2 °F 61.2 °F 30.05 in SSE 2.2 mph 5.0 mph 87 % 0.00 in
20:02 65.2 °F 61.2 °F 30.06 in ESE 3.6 mph 5.8 mph 87 % 0.00 in
20:12 65.0 °F 60.7 °F 30.06 in SSE 4.7 mph 8.1 mph 86 % 0.00 in
20:17 64.9 °F 60.6 °F 30.06 in SE 2.2 mph 4.6 mph 86 % 0.00 in
20:22 64.7 °F 60.4 °F 30.05 in ESE 0.4 mph 1.2 mph 86 % 0.00 in
20:27 64.5 °F 60.2 °F 30.06 in ESE 2.8 mph 3.5 mph 86 % 0.00 in
20:32 64.3 °F 60.3 °F 30.06 in ESE 1.5 mph 5.8 mph 87 % 0.00 in
20:37 64.1 °F 60.2 °F 30.06 in ESE 2.6 mph 4.6 mph 87 % 0.00 in
20:42 63.9 °F 60.0 °F 30.06 in SSE 2.2 mph 5.8 mph 87 % 0.00 in
20:53 63.8 °F 60.2 °F 30.06 in ESE 0.1 mph 1.2 mph 88 % 0.00 in
20:58 63.7 °F 60.1 °F 30.07 in ESE 1.7 mph 3.5 mph 88 % 0.00 in
21:03 63.6 °F 60.0 °F 30.06 in SE 2.3 mph 3.5 mph 88 % 0.00 in
21:13 63.5 °F 59.6 °F 30.07 in SE 1.8 mph 3.5 mph 87 % 0.00 in
21:18 63.5 °F 59.6 °F 30.07 in SSE 0.4 mph 1.2 mph 87 % 0.00 in
21:23 63.4 °F 59.5 °F 30.07 in SE 0.2 mph 3.5 mph 87 % 0.00 in
21:28 63.4 °F 59.8 °F 30.07 in Calm   1.2 mph 88 % 0.00 in
21:38 63.3 °F 59.7 °F 30.08 in Calm     88 % 0.00 in
21:59 63.2 °F 59.6 °F 30.08 in Calm   2.3 mph 88 % 0.00 in
22:04 63.1 °F 59.5 °F 30.07 in Calm     88 % 0.00 in
22:09 63.1 °F 59.5 °F 30.08 in Calm     88 % 0.00 in
22:14 63.1 °F 59.5 °F 30.07 in Calm     88 % 0.00 in
22:29 62.9 °F 59.3 °F 30.08 in Calm     88 % 0.00 in
22:35 62.9 °F 59.3 °F 30.08 in SE 1.8 mph 1.8 mph 88 % 0.00 in
22:40 62.9 °F 59.3 °F 30.08 in SE 0.1 mph 2.3 mph 88 % 0.00 in
22:45 62.8 °F 59.2 °F 30.08 in SE 0.5 mph 2.3 mph 88 % 0.00 in
22:50 62.8 °F 59.2 °F 30.08 in Calm   1.2 mph 88 % 0.00 in
22:55 62.7 °F 59.1 °F 30.08 in SE 2.0 mph 3.5 mph 88 % 0.00 in
23:00 62.7 °F 59.1 °F 30.08 in Calm     88 % 0.00 in
23:05 62.6 °F 59.0 °F 30.08 in SE 0.3 mph 2.3 mph 88 % 0.00 in
23:10 62.5 °F 58.9 °F 30.08 in SE 0.9 mph 2.0 mph 88 % 0.00 in
23:15 62.5 °F 59.2 °F 30.08 in SE 0.3 mph 1.2 mph 89 % 0.00 in
23:20 62.5 °F 59.2 °F 30.08 in SE 0.4 mph 3.5 mph 89 % 0.00 in
23:26 62.4 °F 59.1 °F 30.08 in Calm     89 % 0.00 in
23:31 62.4 °F 59.1 °F 30.08 in Calm     89 % 0.00 in
23:36 62.4 °F 59.1 °F 30.09 in SE 0.8 mph 2.3 mph 89 % 0.00 in
23:41 62.3 °F 59.0 °F 30.09 in SE 1.1 mph 3.5 mph 89 % 0.00 in
23:46 62.3 °F 59.0 °F 30.09 in Calm     89 % 0.00 in
23:51 62.3 °F 59.0 °F 30.09 in Calm     89 % 0.00 in
23:56 62.3 °F 59.0 °F 30.09 in Calm     89 % 0.00 in
Crab Meadow Weather
Compliments of Weather Underground - 2.75 mb

Script developed by  Jim McMurry - jmcmurry@mwt.net Adapted for the template by  Wim van der Kuil - Leuven-Template.eu

Astronomy: Space missions to Mars suggest that it once had water.